Apalachia Observed Data For Previous 48 Hours

Caption
Day and Hour Reservoir Elevation (behind dam)* Tailwater Elevation (below dam)* Average Hourly Discharge*
6/19/2018 2 AM EDT 1,277.75 838.02 105
6/19/2018 3 AM EDT 1,277.70 838.02 55
6/19/2018 4 AM EDT 1,277.75 838.07 58
6/19/2018 5 AM EDT 1,277.68 839.65 1,453
6/19/2018 6 AM EDT 1,277.56 839.65 1,462
6/19/2018 7 AM EDT 1,277.43 839.65 1,462
6/19/2018 8 AM EDT 1,277.30 839.66 1,465
6/19/2018 9 AM EDT 1,277.20 839.67 1,469
6/19/2018 10 AM EDT 1,277.15 839.68 1,467
6/19/2018 11 AM EDT 1,277.27 839.69 1,470
6/19/2018 12 PM EDT 1,277.43 840.64 2,841
6/19/2018 1 PM EDT 1,277.60 840.64 2,873
6/19/2018 2 PM EDT 1,277.72 840.64 2,866
6/19/2018 3 PM EDT 1,277.74 840.64 2,872
6/19/2018 4 PM EDT 1,277.91 840.64 2,861
6/19/2018 5 PM EDT 1,278.00 840.64 2,866
6/19/2018 6 PM EDT 1,278.20 840.64 2,864
6/19/2018 7 PM EDT 1,278.30 840.63 2,871
6/19/2018 8 PM EDT 1,278.40 840.63 2,865
6/19/2018 9 PM EDT 1,278.15 840.62 2,870
6/19/2018 10 PM EDT 1,277.87 840.60 2,865
6/19/2018 11 PM EDT 1,277.59 840.59 2,864
6/20/2018 12 AM EDT 1,277.59 840.59 2,868
6/20/2018 1 AM EDT 1,277.43 839.56 1,519
6/20/2018 2 AM EDT 1,277.34 837.74 97
6/20/2018 3 AM EDT 1,277.29 837.72 55
6/20/2018 4 AM EDT 1,277.32 837.77 59
6/20/2018 5 AM EDT 1,277.25 839.56 1,459
6/20/2018 6 AM EDT 1,277.25 839.54 1,463
6/20/2018 7 AM EDT 1,277.09 839.54 1,464
6/20/2018 8 AM EDT 1,276.95 839.55 1,465
6/20/2018 9 AM EDT 1,276.88 839.54 1,467
6/20/2018 10 AM EDT 1,276.77 839.54 1,469
6/20/2018 11 AM EDT 1,276.69 839.66 1,482
6/20/2018 12 PM EDT 1,276.60 840.57 2,871
6/20/2018 1 PM EDT 1,276.85 840.57 2,876
6/20/2018 2 PM EDT 1,276.89 840.58 2,872
6/20/2018 3 PM EDT 1,277.14 840.57 2,868
6/20/2018 4 PM EDT 1,277.22 840.56 2,861
6/20/2018 5 PM EDT 1,277.38 840.56 2,868
6/20/2018 6 PM EDT 1,277.51 840.57 2,861
6/20/2018 7 PM EDT 1,277.53 840.57 2,869
6/20/2018 8 PM EDT 1,277.72 840.56 2,857
6/20/2018 9 PM EDT 1,277.85 840.56 2,865
6/20/2018 10 PM EDT 1,277.96 840.56 2,864
6/20/2018 11 PM EDT 1,278.08 839.54 2,318
6/21/2018 12 AM EDT 1,278.02 839.54 1,461
6/21/2018 1 AM EDT 1,277.86 839.52 1,465
6/21/2018 2 AM EDT 1,277.85 837.64 100
6/21/2018 3 AM EDT 1,277.91 837.63 55
6/21/2018 4 AM EDT 1,277.82 837.63 55
6/21/2018 5 AM EDT 1,277.82 839.53 1,455
6/21/2018 6 AM EDT 1,277.68 839.52 1,461
6/21/2018 7 AM EDT 1,277.68 839.53 1,463
6/21/2018 8 AM EDT 1,277.45 839.54 1,464
6/21/2018 9 AM EDT 1,277.37 839.55 1,464
6/21/2018 10 AM EDT 1,277.28 839.55 1,465
6/21/2018 11 AM EDT 1,277.25 839.56 1,464
6/21/2018 12 PM EDT 1,276.96 840.56 2,860
6/21/2018 1 PM EDT 1,276.95 840.57 2,870

Elevations are in feet above sea level. Discharges are in cubic feet per second and are reported at the end of the hour.